createdAt,value
2022-12-23T00:02:37.322Z,10.93
2022-12-23T00:05:40.244Z,10.80
2022-12-23T00:08:44.494Z,11.06
2022-12-23T00:12:14.642Z,11.06
2022-12-23T00:15:16.460Z,10.93
2022-12-23T00:18:19.218Z,11.08
2022-12-23T00:21:21.868Z,11.02
2022-12-23T00:24:25.923Z,11.10
2022-12-23T00:27:32.835Z,11.08
2022-12-23T00:30:38.784Z,10.91
2022-12-23T00:33:42.394Z,10.57
2022-12-23T00:36:45.079Z,11.07
2022-12-23T00:40:09.763Z,10.81
2022-12-23T00:43:12.413Z,11.07
2022-12-23T00:46:15.101Z,11.07
2022-12-23T00:49:36.233Z,10.67
2022-12-23T00:52:38.890Z,11.08
2022-12-23T00:55:43.155Z,11.01
2022-12-23T00:58:45.831Z,11.10
2022-12-23T01:02:06.135Z,11.05
2022-12-23T01:05:37.325Z,11.10
2022-12-23T01:08:39.947Z,11.00
2022-12-23T01:11:46.884Z,10.87
2022-12-23T01:14:49.578Z,11.05
2022-12-23T01:17:52.160Z,10.81
2022-12-23T01:20:54.822Z,10.90
2022-12-23T01:23:57.491Z,11.00
2022-12-23T01:27:01.657Z,11.00
2022-12-23T01:30:04.525Z,10.90
2022-12-23T01:33:07.241Z,10.91
2022-12-23T01:36:10.964Z,11.01
2022-12-23T01:39:13.598Z,11.01
2022-12-23T01:42:36.964Z,11.00
2022-12-23T01:45:41.980Z,10.98
2022-12-23T01:48:45.820Z,10.95
2022-12-23T01:51:48.401Z,10.76
2022-12-23T01:54:51.044Z,10.95
2022-12-23T01:57:55.400Z,10.95
2022-12-23T02:01:15.790Z,10.93
2022-12-23T02:04:20.507Z,10.91
2022-12-23T02:07:40.785Z,10.87
2022-12-23T02:11:09.957Z,10.62
2022-12-23T02:14:37.892Z,10.44
2022-12-23T02:17:44.807Z,10.83
2022-12-23T02:21:02.812Z,10.52
2022-12-23T02:24:20.793Z,10.89
2022-12-23T02:27:28.482Z,10.37
2022-12-23T02:30:44.045Z,10.87
2022-12-23T02:33:50.400Z,10.79
2022-12-23T02:36:55.191Z,10.85
2022-12-23T02:39:59.532Z,10.65
2022-12-23T02:43:05.365Z,10.93
2022-12-23T02:46:11.867Z,10.88
2022-12-23T02:49:15.913Z,10.90
2022-12-23T02:52:19.364Z,10.90
2022-12-23T02:55:24.178Z,10.93
2022-12-23T02:58:28.597Z,10.85
2022-12-23T03:01:33.074Z,10.94
2022-12-23T03:04:38.209Z,10.95
2022-12-23T03:07:42.681Z,10.73
2022-12-23T03:10:53.151Z,10.67
2022-12-23T03:14:21.662Z,10.72
2022-12-23T03:17:36.804Z,10.67
2022-12-23T03:20:42.883Z,10.75
2022-12-23T03:23:51.978Z,10.76
2022-12-23T03:27:00.730Z,10.88
2022-12-23T03:30:04.976Z,10.65
2022-12-23T03:33:14.680Z,10.64
2022-12-23T03:36:18.813Z,10.93
2022-12-23T03:39:23.041Z,10.59
2022-12-23T03:42:27.247Z,10.44
2022-12-23T03:45:40.289Z,10.41
2022-12-23T03:48:46.309Z,10.79
2022-12-23T03:51:51.804Z,10.83
2022-12-23T03:54:55.389Z,10.71
2022-12-23T03:58:01.044Z,10.84
2022-12-23T04:01:06.836Z,10.82
2022-12-23T04:04:12.415Z,10.54
2022-12-23T04:07:17.523Z,10.51
2022-12-23T04:10:21.192Z,10.70
2022-12-23T04:13:26.492Z,10.49
2022-12-23T04:16:29.183Z,10.75
2022-12-23T04:19:33.368Z,10.30
2022-12-23T04:22:36.059Z,10.75
2022-12-23T04:25:38.828Z,10.37
2022-12-23T04:28:43.969Z,10.61
2022-12-23T04:31:46.762Z,10.74
2022-12-23T04:34:50.864Z,10.68
2022-12-23T04:37:53.551Z,10.77
2022-12-23T04:40:56.164Z,10.78
2022-12-23T04:43:58.893Z,10.80
2022-12-23T04:47:01.649Z,10.38
2022-12-23T04:50:06.752Z,10.77
2022-12-23T04:53:09.553Z,10.30
2022-12-23T04:56:12.184Z,10.47
2022-12-23T04:59:14.905Z,10.80
2022-12-23T05:02:17.618Z,10.82
2022-12-23T05:05:21.688Z,10.33
2022-12-23T05:08:24.435Z,10.80
2022-12-23T05:11:27.086Z,10.52
2022-12-23T05:14:29.818Z,10.80
2022-12-23T05:17:32.458Z,10.48
2022-12-23T05:20:36.462Z,10.76
2022-12-23T05:23:39.495Z,10.50
2022-12-23T05:26:47.608Z,10.44
2022-12-23T05:29:50.595Z,10.31
2022-12-23T05:32:54.189Z,10.60
2022-12-23T05:35:58.291Z,10.16
2022-12-23T05:39:01.089Z,10.50
2022-12-23T05:42:03.766Z,10.35
2022-12-23T05:45:07.431Z,10.26
2022-12-23T05:48:10.215Z,10.25
2022-12-23T05:51:14.317Z,10.58
2022-12-23T05:54:17.050Z,10.58
2022-12-23T05:57:19.682Z,10.59
2022-12-23T06:00:22.871Z,10.37
2022-12-23T06:03:25.967Z,10.56
2022-12-23T06:06:30.179Z,10.37
2022-12-23T06:09:32.880Z,10.60
2022-12-23T06:12:35.701Z,10.33
2022-12-23T06:15:38.453Z,10.63
2022-12-23T06:18:41.319Z,10.64
2022-12-23T06:21:45.484Z,10.66
2022-12-23T06:24:48.384Z,10.68
2022-12-23T06:27:51.127Z,10.66
2022-12-23T06:30:54.705Z,10.55
2022-12-23T06:33:57.464Z,10.52
2022-12-23T06:37:01.480Z,10.57
2022-12-23T06:40:04.520Z,10.47
2022-12-23T06:43:07.155Z,10.20
2022-12-23T06:46:09.895Z,10.56
2022-12-23T06:49:13.665Z,10.57
2022-12-23T06:52:18.289Z,10.07
2022-12-23T06:55:20.953Z,10.52
2022-12-23T06:58:23.612Z,10.08
2022-12-23T07:01:26.478Z,10.51
2022-12-23T07:04:29.358Z,10.39
2022-12-23T07:07:33.527Z,10.47
2022-12-23T07:10:36.276Z,10.22
2022-12-23T07:13:40.101Z,10.38
2022-12-23T07:16:42.933Z,10.43
2022-12-23T07:19:45.729Z,10.05
2022-12-23T07:22:50.857Z,10.08
2022-12-23T07:25:55.814Z,10.43
2022-12-23T07:28:58.517Z,10.21
2022-12-23T07:32:02.716Z,10.44
2022-12-23T07:35:06.146Z,10.41
2022-12-23T07:38:10.287Z,10.43
2022-12-23T07:41:12.906Z,10.41
2022-12-23T07:44:15.679Z,10.40
2022-12-23T07:47:18.355Z,10.36
2022-12-23T07:50:21.053Z,9.96
2022-12-23T07:53:25.090Z,10.27
2022-12-23T07:56:27.734Z,9.99
2022-12-23T07:59:30.408Z,10.22
2022-12-23T08:02:33.278Z,9.98
2022-12-23T08:05:36.103Z,10.20
2022-12-23T08:08:40.422Z,9.88
2022-12-23T08:11:43.083Z,10.15
2022-12-23T08:14:45.851Z,10.14
2022-12-23T08:17:48.572Z,10.10
2022-12-23T08:20:57.456Z,10.20
2022-12-23T08:24:01.477Z,10.19
2022-12-23T08:27:04.167Z,10.18
2022-12-23T08:30:09.538Z,10.05
2022-12-23T08:33:12.219Z,9.91
2022-12-23T08:36:22.205Z,9.99
2022-12-23T08:39:27.057Z,9.58
2022-12-23T08:42:29.670Z,9.70
2022-12-23T08:45:32.275Z,9.74
2022-12-23T08:48:35.090Z,9.91
2022-12-23T08:51:37.982Z,10.09
2022-12-23T08:54:41.980Z,9.78
2022-12-23T08:57:44.630Z,10.12
2022-12-23T09:00:47.359Z,9.88
2022-12-23T09:03:50.787Z,10.11
2022-12-23T09:06:53.495Z,10.12
2022-12-23T09:09:57.559Z,10.12
2022-12-23T09:13:00.273Z,10.13
2022-12-23T09:16:03.009Z,9.99
2022-12-23T09:19:05.697Z,9.97
2022-12-23T09:22:09.392Z,9.62
2022-12-23T09:25:14.855Z,9.67
2022-12-23T09:28:17.544Z,9.76
2022-12-23T09:31:20.404Z,10.01
2022-12-23T09:34:23.158Z,10.03
2022-12-23T09:37:25.904Z,10.08
2022-12-23T09:40:30.303Z,10.06
2022-12-23T09:43:37.252Z,9.74
2022-12-23T09:46:41.965Z,10.18
2022-12-23T09:49:46.613Z,9.92
2022-12-23T09:52:54.807Z,10.16
2022-12-23T09:56:01.259Z,10.12
2022-12-23T09:59:07.717Z,10.08
2022-12-23T10:02:15.069Z,9.83
2022-12-23T10:05:20.345Z,10.06
2022-12-23T10:08:25.781Z,10.01
2022-12-23T10:11:31.398Z,10.01
2022-12-23T10:14:34.078Z,9.99
2022-12-23T10:17:39.383Z,10.01
2022-12-23T10:20:50.019Z,10.01
2022-12-23T10:23:53.679Z,9.61
2022-12-23T10:27:00.755Z,10.06
2022-12-23T10:30:26.459Z,9.62
2022-12-23T10:33:32.350Z,9.96
2022-12-23T10:36:40.127Z,9.88
2022-12-23T10:39:46.429Z,9.82
2022-12-23T10:42:54.095Z,9.83
2022-12-23T10:45:58.533Z,9.92
2022-12-23T10:49:03.589Z,9.70
2022-12-23T10:52:07.463Z,9.75
2022-12-23T10:55:16.273Z,9.85
2022-12-23T10:58:20.338Z,9.94
2022-12-23T11:01:27.166Z,9.89
2022-12-23T11:04:33.086Z,9.79
2022-12-23T11:07:45.178Z,9.84
2022-12-23T11:10:48.567Z,9.76
2022-12-23T11:13:52.823Z,9.28
2022-12-23T11:16:55.729Z,9.23
2022-12-23T11:20:09.582Z,9.55
2022-12-23T11:23:27.589Z,9.29
2022-12-23T11:26:30.102Z,9.85
2022-12-23T11:29:35.310Z,9.48
2022-12-23T11:32:38.024Z,9.30
2022-12-23T11:35:40.725Z,9.65
2022-12-23T11:38:49.229Z,9.58
2022-12-23T11:41:53.220Z,9.62
2022-12-23T11:44:59.152Z,9.68
2022-12-23T11:48:01.829Z,9.60
2022-12-23T11:51:06.199Z,10.00
2022-12-23T11:54:15.962Z,10.04
2022-12-23T11:57:19.997Z,9.94
2022-12-23T12:00:26.102Z,9.84
2022-12-23T12:03:29.828Z,9.86
2022-12-23T12:06:32.685Z,10.01
2022-12-23T12:09:35.432Z,10.10
2022-12-23T12:12:38.191Z,9.98
2022-12-23T12:15:44.607Z,10.14
2022-12-23T12:18:53.665Z,10.17
2022-12-23T12:22:00.008Z,10.20
2022-12-23T12:25:12.978Z,9.71
2022-12-23T12:28:18.413Z,9.82
2022-12-23T12:31:24.990Z,10.21
2022-12-23T12:34:35.974Z,10.10
2022-12-23T12:37:42.088Z,10.24
2022-12-23T12:40:46.642Z,10.01
2022-12-23T12:43:52.030Z,10.29
2022-12-23T12:46:58.228Z,9.96
2022-12-23T12:50:01.997Z,10.20
2022-12-23T12:53:10.182Z,9.96
2022-12-23T12:56:14.863Z,10.19
2022-12-23T12:59:18.727Z,9.81
2022-12-23T13:02:31.721Z,10.02
2022-12-23T13:05:53.830Z,10.29
2022-12-23T13:09:02.449Z,10.27
2022-12-23T13:12:06.816Z,10.24
2022-12-23T13:15:15.321Z,10.20
2022-12-23T13:18:28.341Z,10.12
2022-12-23T13:21:33.786Z,9.91
2022-12-23T13:24:39.219Z,10.03
2022-12-23T13:27:45.315Z,10.03
2022-12-23T13:30:49.823Z,10.20
2022-12-23T13:33:56.020Z,9.96
2022-12-23T13:37:01.912Z,9.94
2022-12-23T13:40:10.285Z,10.27
2022-12-23T13:43:20.088Z,9.76
2022-12-23T13:46:26.344Z,9.82
2022-12-23T13:49:44.388Z,10.30
2022-12-23T13:52:56.392Z,10.30
2022-12-23T13:56:04.575Z,10.00
2022-12-23T13:59:09.738Z,10.20
2022-12-23T14:02:44.634Z,10.32
2022-12-23T14:05:50.468Z,9.76
2022-12-23T14:08:53.401Z,10.28
2022-12-23T14:12:00.969Z,10.19
2022-12-23T14:15:29.320Z,10.28
2022-12-23T14:18:49.197Z,10.30
2022-12-23T14:22:02.331Z,10.30
2022-12-23T14:25:44.432Z,10.33
2022-12-23T14:29:07.670Z,9.97
2022-12-23T14:32:20.250Z,10.18
2022-12-23T14:35:28.876Z,10.31
2022-12-23T14:38:33.521Z,10.33
2022-12-23T14:41:39.705Z,10.33
2022-12-23T14:44:49.163Z,9.91
2022-12-23T14:47:52.016Z,10.07
2022-12-23T14:50:57.847Z,9.86
2022-12-23T14:54:15.474Z,10.24
2022-12-23T14:57:19.546Z,10.10
2022-12-23T15:00:22.265Z,10.20
2022-12-23T15:03:25.018Z,10.13
2022-12-23T15:06:33.142Z,9.96
2022-12-23T15:09:39.540Z,10.17
2022-12-23T15:12:47.327Z,10.01
2022-12-23T15:15:58.977Z,9.89
2022-12-23T15:19:20.036Z,10.20
2022-12-23T15:22:31.923Z,10.19
2022-12-23T15:25:36.958Z,10.19
2022-12-23T15:28:41.743Z,10.17
2022-12-23T15:31:47.378Z,10.23
2022-12-23T15:34:50.192Z,10.33
2022-12-23T15:37:52.892Z,10.02
2022-12-23T15:40:59.793Z,10.41
2022-12-23T15:44:02.450Z,10.22
2022-12-23T15:47:23.267Z,10.19
2022-12-23T15:50:26.003Z,10.52
2022-12-23T15:53:30.328Z,10.01
2022-12-23T15:56:35.316Z,10.56
2022-12-23T15:59:38.828Z,10.19
2022-12-23T16:03:01.538Z,10.59
2022-12-23T16:06:10.597Z,10.24
2022-12-23T16:09:24.985Z,10.58
2022-12-23T16:12:29.140Z,10.55
2022-12-23T16:15:32.854Z,10.36
2022-12-23T16:18:36.253Z,10.57
2022-12-23T16:21:38.854Z,10.60
2022-12-23T16:24:45.056Z,10.62
2022-12-23T16:27:49.801Z,10.66
2022-12-23T16:30:53.254Z,10.68
2022-12-23T16:33:56.732Z,10.59
2022-12-23T16:36:59.340Z,10.77
2022-12-23T16:40:02.287Z,10.77
2022-12-23T16:43:06.320Z,10.63
2022-12-23T16:46:09.383Z,10.76
2022-12-23T16:49:15.382Z,11.02
2022-12-23T16:52:18.156Z,11.08
2022-12-23T16:55:21.173Z,10.80
2022-12-23T16:58:25.450Z,10.56
2022-12-23T17:01:29.375Z,11.14
2022-12-23T17:04:32.103Z,11.06
2022-12-23T17:07:38.720Z,11.06
2022-12-23T17:10:44.874Z,11.36
2022-12-23T17:13:49.090Z,11.06
2022-12-23T17:16:52.190Z,11.24
2022-12-23T17:19:56.205Z,11.50
2022-12-23T17:23:03.456Z,11.29
2022-12-23T17:26:06.438Z,11.50
2022-12-23T17:29:12.419Z,11.53
2022-12-23T17:32:16.002Z,11.52
2022-12-23T17:35:19.949Z,11.40
2022-12-23T17:38:22.905Z,11.37
2022-12-23T17:41:27.736Z,11.13
2022-12-23T17:44:31.890Z,10.95
2022-12-23T17:47:34.681Z,10.86
2022-12-23T17:50:37.341Z,11.32
2022-12-23T17:53:40.140Z,11.24
2022-12-23T17:56:45.989Z,11.06
2022-12-23T17:59:50.473Z,10.97
2022-12-23T18:02:53.290Z,11.32
2022-12-23T18:06:01.771Z,10.76
2022-12-23T18:09:05.036Z,11.20
2022-12-23T18:12:08.077Z,11.36
2022-12-23T18:15:20.509Z,11.38
2022-12-23T18:18:32.123Z,11.38
2022-12-23T18:21:38.148Z,11.16
2022-12-23T18:24:40.797Z,11.31
2022-12-23T18:27:43.536Z,11.17
2022-12-23T18:30:47.561Z,11.41
2022-12-23T18:33:50.360Z,11.24
2022-12-23T18:36:53.126Z,11.42
2022-12-23T18:39:55.934Z,11.44
2022-12-23T18:42:58.634Z,11.24
2022-12-23T18:46:02.720Z,11.36
2022-12-23T18:49:05.507Z,11.47
2022-12-23T18:52:10.207Z,11.49
2022-12-23T18:55:12.964Z,11.35
2022-12-23T18:58:15.930Z,11.18
2022-12-23T19:01:19.982Z,11.49
2022-12-23T19:04:22.775Z,11.19
2022-12-23T19:07:25.447Z,11.47
2022-12-23T19:10:29.289Z,11.13
2022-12-23T19:13:33.192Z,11.41
2022-12-23T19:16:37.374Z,11.23
2022-12-23T19:19:40.513Z,11.32
2022-12-23T19:22:43.436Z,11.32
2022-12-23T19:25:54.561Z,11.00
2022-12-23T19:28:57.740Z,11.29
2022-12-23T19:32:01.891Z,11.20
2022-12-23T19:35:04.671Z,11.27
2022-12-23T19:38:07.545Z,10.74
2022-12-23T19:41:10.330Z,10.87
2022-12-23T19:44:13.233Z,10.89
2022-12-23T19:47:17.419Z,11.27
2022-12-23T19:50:22.136Z,11.30
2022-12-23T19:53:24.933Z,11.19
2022-12-23T19:56:29.375Z,11.22
2022-12-23T19:59:32.112Z,11.33
2022-12-23T20:02:36.648Z,11.34
2022-12-23T20:05:40.104Z,10.88
2022-12-23T20:08:45.659Z,11.39
2022-12-23T20:11:49.036Z,11.33
2022-12-23T20:14:51.732Z,11.36
2022-12-23T20:17:55.758Z,11.33
2022-12-23T20:20:59.547Z,11.15
2022-12-23T20:24:02.390Z,11.23
2022-12-23T20:27:09.528Z,11.53
2022-12-23T20:30:14.400Z,11.55
2022-12-23T20:33:18.568Z,11.35
2022-12-23T20:36:22.644Z,11.48
2022-12-23T20:39:25.368Z,11.60
2022-12-23T20:42:28.172Z,11.36
2022-12-23T20:45:30.865Z,11.22
2022-12-23T20:48:35.115Z,11.17
2022-12-23T20:51:37.857Z,11.55
2022-12-23T20:54:40.566Z,11.60
2022-12-23T20:57:45.363Z,11.61
2022-12-23T21:00:48.382Z,11.45
2022-12-23T21:03:53.092Z,11.38
2022-12-23T21:06:55.918Z,11.32
2022-12-23T21:09:58.802Z,11.64
2022-12-23T21:13:01.511Z,11.60
2022-12-23T21:16:04.532Z,11.53
2022-12-23T21:19:09.692Z,11.49
2022-12-23T21:22:12.492Z,11.32
2022-12-23T21:25:17.658Z,11.71
2022-12-23T21:28:20.335Z,11.66
2022-12-23T21:31:23.907Z,11.42
2022-12-23T21:34:28.076Z,11.46
2022-12-23T21:37:30.750Z,11.44
2022-12-23T21:40:33.418Z,11.52
2022-12-23T21:43:36.239Z,11.69
2022-12-23T21:46:39.010Z,11.70
2022-12-23T21:49:44.194Z,11.71
2022-12-23T21:52:46.955Z,11.67
2022-12-23T21:55:49.724Z,11.47
2022-12-23T21:58:55.961Z,11.54
2022-12-23T22:01:58.724Z,11.42
2022-12-23T22:05:03.690Z,11.42
2022-12-23T22:08:07.087Z,11.45
2022-12-23T22:11:10.345Z,11.29
2022-12-23T22:14:14.433Z,11.22
2022-12-23T22:17:17.168Z,11.18
2022-12-23T22:20:21.329Z,11.35
2022-12-23T22:23:24.048Z,11.32
2022-12-23T22:26:27.728Z,11.31
2022-12-23T22:29:30.402Z,11.30
2022-12-23T22:32:36.553Z,11.12
2022-12-23T22:35:43.209Z,11.08
2022-12-23T22:38:45.906Z,11.32
2022-12-23T22:41:48.711Z,11.28
2022-12-23T22:44:51.408Z,11.09
2022-12-23T22:47:54.231Z,11.42
2022-12-23T22:51:03.915Z,10.90
2022-12-23T22:54:06.718Z,11.39
2022-12-23T22:57:11.129Z,11.37
2022-12-23T23:00:14.566Z,11.34
2022-12-23T23:03:17.325Z,11.32
2022-12-23T23:06:21.471Z,11.29
2022-12-23T23:09:24.219Z,11.21
2022-12-23T23:12:27.002Z,10.88
2022-12-23T23:15:29.799Z,10.89
2022-12-23T23:18:32.518Z,11.24
2022-12-23T23:21:37.680Z,10.81
2022-12-23T23:24:40.384Z,11.22
2022-12-23T23:27:42.985Z,11.22
2022-12-23T23:30:45.660Z,11.10
2022-12-23T23:33:48.327Z,11.16
2022-12-23T23:36:52.479Z,11.15
2022-12-23T23:39:55.160Z,11.13
2022-12-23T23:43:00.443Z,10.68
2022-12-23T23:46:03.164Z,10.94
2022-12-23T23:49:06.157Z,11.01
2022-12-23T23:52:10.230Z,11.02
2022-12-23T23:55:12.909Z,11.03
2022-12-23T23:58:15.593Z,11.01
